createdAt,value
2019-03-19T00:00:25.826Z,996.72
2019-03-19T00:01:25.742Z,996.73
2019-03-19T00:02:25.660Z,996.72
2019-03-19T00:03:25.573Z,996.73
2019-03-19T00:04:25.494Z,996.71
2019-03-19T00:05:25.412Z,996.68
2019-03-19T00:06:25.321Z,996.70
2019-03-19T00:07:25.237Z,996.67
2019-03-19T00:08:25.152Z,996.70
2019-03-19T00:09:25.069Z,996.66
2019-03-19T00:10:24.985Z,996.67
2019-03-19T00:11:25.004Z,996.72
2019-03-19T00:12:24.815Z,996.67
2019-03-19T00:13:24.732Z,996.69
2019-03-19T00:14:24.649Z,996.71
2019-03-19T00:15:24.572Z,996.73
2019-03-19T00:16:24.479Z,996.72
2019-03-19T00:17:24.396Z,996.72
2019-03-19T00:18:24.338Z,996.76
2019-03-19T00:19:24.231Z,996.75
2019-03-19T00:20:24.144Z,996.76
2019-03-19T00:21:24.059Z,996.78
2019-03-19T00:22:25.747Z,996.76
2019-03-19T00:23:23.892Z,996.76
2019-03-19T00:24:23.806Z,996.72
2019-03-19T00:25:30.033Z,996.72
2019-03-19T00:26:23.640Z,996.67
2019-03-19T00:27:23.558Z,996.68
2019-03-19T00:28:23.471Z,996.67
2019-03-19T00:29:23.388Z,996.66
2019-03-19T00:30:23.308Z,996.67
2019-03-19T00:31:23.220Z,996.68
2019-03-19T00:32:23.135Z,996.71
2019-03-19T00:33:23.059Z,996.77
2019-03-19T00:34:22.967Z,996.75
2019-03-19T00:35:22.883Z,996.76
2019-03-19T00:36:22.799Z,996.73
2019-03-19T00:37:22.714Z,996.82
2019-03-19T00:38:22.631Z,996.83
2019-03-19T00:39:22.547Z,996.88
2019-03-19T00:40:22.463Z,996.89
2019-03-19T00:41:22.379Z,996.89
2019-03-19T00:42:22.296Z,996.90
2019-03-19T00:43:22.211Z,996.91
2019-03-19T00:44:22.127Z,996.86
2019-03-19T00:45:22.044Z,996.92
2019-03-19T00:46:21.959Z,996.88
2019-03-19T00:47:21.874Z,996.84
2019-03-19T00:48:21.791Z,996.88
2019-03-19T00:49:21.707Z,996.84
2019-03-19T00:50:21.623Z,996.86
2019-03-19T00:51:21.539Z,996.87
2019-03-19T00:52:21.454Z,996.89
2019-03-19T00:53:21.371Z,996.89
2019-03-19T00:54:21.287Z,996.86
2019-03-19T00:55:21.203Z,996.84
2019-03-19T00:56:21.125Z,996.86
2019-03-19T00:57:21.034Z,996.87
2019-03-19T00:58:20.951Z,996.85
2019-03-19T00:59:20.867Z,996.86
2019-03-19T01:00:20.782Z,996.86
2019-03-19T01:01:20.699Z,996.84
2019-03-19T01:02:20.615Z,996.88
2019-03-19T01:03:20.547Z,996.86
2019-03-19T01:04:20.446Z,996.85
2019-03-19T01:05:20.364Z,996.85
2019-03-19T01:06:20.278Z,996.86
2019-03-19T01:07:20.197Z,996.84
2019-03-19T01:08:20.111Z,996.84
2019-03-19T01:09:20.027Z,996.82
2019-03-19T01:10:19.944Z,996.81
2019-03-19T01:11:19.860Z,996.82
2019-03-19T01:12:19.774Z,996.84
2019-03-19T01:13:19.842Z,996.81
2019-03-19T01:14:19.610Z,996.82
2019-03-19T01:15:19.532Z,996.84
2019-03-19T01:16:19.440Z,996.85
2019-03-19T01:17:19.357Z,996.84
2019-03-19T01:18:19.275Z,996.83
2019-03-19T01:19:19.190Z,996.84
2019-03-19T01:20:19.104Z,996.87
2019-03-19T01:21:19.021Z,996.90
2019-03-19T01:22:18.938Z,996.88
2019-03-19T01:23:18.853Z,996.92
2019-03-19T01:24:18.770Z,996.94
2019-03-19T01:25:18.843Z,996.92
2019-03-19T01:26:18.601Z,996.93
2019-03-19T01:27:18.525Z,996.90
2019-03-19T01:28:18.434Z,996.87
2019-03-19T01:29:18.401Z,996.87
2019-03-19T01:30:18.267Z,996.86
2019-03-19T01:31:18.181Z,996.85
2019-03-19T01:32:18.098Z,996.83
2019-03-19T01:33:18.012Z,996.83
2019-03-19T01:34:17.930Z,996.87
2019-03-19T01:35:17.895Z,996.88
2019-03-19T01:36:17.760Z,996.88
2019-03-19T01:37:17.676Z,996.89
2019-03-19T01:38:17.593Z,996.85
2019-03-19T01:39:17.509Z,996.90
2019-03-19T01:40:17.471Z,996.86
2019-03-19T01:41:17.344Z,996.90
2019-03-19T01:42:17.256Z,996.90
2019-03-19T01:43:17.172Z,996.90
2019-03-19T01:44:17.090Z,996.87
2019-03-19T01:45:17.004Z,996.86
2019-03-19T01:46:16.921Z,996.87
2019-03-19T01:47:16.837Z,996.90
2019-03-19T01:48:16.751Z,996.91
2019-03-19T01:49:16.667Z,996.87
2019-03-19T01:50:16.584Z,996.90
2019-03-19T01:51:16.499Z,996.89
2019-03-19T01:52:16.414Z,996.87
2019-03-19T01:53:16.332Z,996.92
2019-03-19T01:54:16.251Z,996.90
2019-03-19T01:55:16.162Z,996.91
2019-03-19T01:56:16.077Z,996.89
2019-03-19T01:57:15.993Z,996.92
2019-03-19T01:58:15.909Z,996.93
2019-03-19T01:59:15.824Z,996.99
2019-03-19T02:00:15.742Z,996.94
2019-03-19T02:01:15.655Z,996.95
2019-03-19T02:02:15.572Z,996.98
2019-03-19T02:03:15.487Z,997.00
2019-03-19T02:04:15.401Z,996.97
2019-03-19T02:05:15.319Z,996.98
2019-03-19T02:06:15.234Z,997.01
2019-03-19T02:07:15.149Z,996.96
2019-03-19T02:08:15.064Z,996.96
2019-03-19T02:09:14.981Z,996.97
2019-03-19T02:10:14.898Z,997.01
2019-03-19T02:11:14.811Z,997.00
2019-03-19T02:12:14.728Z,997.00
2019-03-19T02:13:14.641Z,996.98
2019-03-19T02:14:14.558Z,996.94
2019-03-19T02:15:14.476Z,996.92
2019-03-19T02:16:14.389Z,996.90
2019-03-19T02:17:14.405Z,996.87
2019-03-19T02:18:14.220Z,996.88
2019-03-19T02:19:14.138Z,996.85
2019-03-19T02:20:14.051Z,996.90
2019-03-19T02:21:13.966Z,996.91
2019-03-19T02:22:13.882Z,996.97
2019-03-19T02:23:13.799Z,996.94
2019-03-19T02:24:13.714Z,996.99
2019-03-19T02:25:13.635Z,997.02
2019-03-19T02:26:16.863Z,997.01
2019-03-19T02:27:13.460Z,996.97
2019-03-19T02:28:13.377Z,996.98
2019-03-19T02:29:13.297Z,997.00
2019-03-19T02:30:13.224Z,996.98
2019-03-19T02:31:13.122Z,997.01
2019-03-19T02:32:13.138Z,996.96
2019-03-19T02:33:12.956Z,996.95
2019-03-19T02:34:12.870Z,996.95
2019-03-19T02:35:12.812Z,996.96
2019-03-19T02:36:12.699Z,996.96
2019-03-19T02:37:12.615Z,997.01
2019-03-19T02:38:12.534Z,996.95
2019-03-19T02:39:12.447Z,997.00
2019-03-19T02:40:12.362Z,997.06
2019-03-19T02:41:12.276Z,997.05
2019-03-19T02:42:12.192Z,997.08
2019-03-19T02:43:12.107Z,997.09
2019-03-19T02:44:12.124Z,997.10
2019-03-19T02:45:11.965Z,997.07
2019-03-19T02:46:11.855Z,997.08
2019-03-19T02:47:11.791Z,997.04
2019-03-19T02:48:11.699Z,997.07
2019-03-19T02:49:11.598Z,997.08
2019-03-19T02:50:11.514Z,997.13
2019-03-19T02:51:11.428Z,997.16
2019-03-19T02:52:11.351Z,997.20
2019-03-19T02:53:11.270Z,997.24
2019-03-19T02:54:11.183Z,997.23
2019-03-19T02:55:11.093Z,997.22
2019-03-19T02:56:11.004Z,997.18
2019-03-19T02:57:10.919Z,997.16
2019-03-19T02:58:10.835Z,997.17
2019-03-19T02:59:10.750Z,997.19
2019-03-19T03:00:10.715Z,997.20
2019-03-19T03:01:10.586Z,997.24
2019-03-19T03:02:10.505Z,997.30
2019-03-19T03:03:10.419Z,997.26
2019-03-19T03:04:10.327Z,997.29
2019-03-19T03:05:10.240Z,997.25
2019-03-19T03:06:10.158Z,997.23
2019-03-19T03:07:10.074Z,997.19
2019-03-19T03:08:09.991Z,997.19
2019-03-19T03:09:09.912Z,997.19
2019-03-19T03:10:09.815Z,997.13
2019-03-19T03:11:09.732Z,997.18
2019-03-19T03:12:09.645Z,997.16
2019-03-19T03:13:09.563Z,997.23
2019-03-19T03:14:09.476Z,997.26
2019-03-19T03:15:09.749Z,997.27
2019-03-19T03:16:09.311Z,997.29
2019-03-19T03:17:09.220Z,997.28
2019-03-19T03:18:09.145Z,997.26
2019-03-19T03:19:09.052Z,997.27
2019-03-19T03:20:08.966Z,997.31
2019-03-19T03:21:08.990Z,997.33
2019-03-19T03:22:08.797Z,997.41
2019-03-19T03:23:08.713Z,997.46
2019-03-19T03:24:08.627Z,997.50
2019-03-19T03:25:08.542Z,997.47
2019-03-19T03:26:08.456Z,997.43
2019-03-19T03:27:08.428Z,997.45
2019-03-19T03:28:08.287Z,997.45
2019-03-19T03:29:08.203Z,997.45
2019-03-19T03:30:08.147Z,997.45
2019-03-19T03:31:08.033Z,997.47
2019-03-19T03:32:07.947Z,997.50
2019-03-19T03:33:07.919Z,997.51
2019-03-19T03:34:07.781Z,997.54
2019-03-19T03:35:07.696Z,997.57
2019-03-19T03:36:07.606Z,997.61
2019-03-19T03:37:07.522Z,997.61
2019-03-19T03:38:07.440Z,997.60
2019-03-19T03:39:07.353Z,997.61
2019-03-19T03:40:07.268Z,997.54
2019-03-19T03:41:07.182Z,997.57
2019-03-19T03:42:07.097Z,997.56
2019-03-19T03:43:07.016Z,997.62
2019-03-19T03:44:06.926Z,997.67
2019-03-19T03:45:06.847Z,997.66
2019-03-19T03:46:06.760Z,997.71
2019-03-19T03:47:06.673Z,997.74
2019-03-19T03:48:06.588Z,997.76
2019-03-19T03:49:06.506Z,997.82
2019-03-19T03:50:06.418Z,997.85
2019-03-19T03:51:06.332Z,997.86
2019-03-19T03:52:06.247Z,997.88
2019-03-19T03:53:06.162Z,997.87
2019-03-19T03:54:06.082Z,997.85
2019-03-19T03:55:05.991Z,997.83
2019-03-19T03:56:05.909Z,997.86
2019-03-19T03:57:05.921Z,997.83
2019-03-19T03:58:05.736Z,997.83
2019-03-19T03:59:05.652Z,997.80
2019-03-19T04:00:05.567Z,997.86
2019-03-19T04:01:05.481Z,997.86
2019-03-19T04:02:05.397Z,997.90
2019-03-19T04:03:05.310Z,997.89
2019-03-19T04:04:05.230Z,997.93
2019-03-19T04:05:05.140Z,997.94
2019-03-19T04:06:05.055Z,997.94
2019-03-19T04:07:04.971Z,997.90
2019-03-19T04:08:04.883Z,997.90
2019-03-19T04:09:04.804Z,997.91
2019-03-19T04:10:04.715Z,997.89
2019-03-19T04:11:04.634Z,997.92
2019-03-19T04:12:04.544Z,997.92
2019-03-19T04:13:04.465Z,997.96
2019-03-19T04:14:04.374Z,997.95
2019-03-19T04:15:04.290Z,997.97
2019-03-19T04:16:04.204Z,998.00
2019-03-19T04:17:04.122Z,997.99
2019-03-19T04:18:04.033Z,998.03
2019-03-19T04:19:03.952Z,998.03
2019-03-19T04:20:03.864Z,997.99
2019-03-19T04:21:03.776Z,997.99
2019-03-19T04:22:03.698Z,997.98
2019-03-19T04:23:03.606Z,997.99
2019-03-19T04:24:03.522Z,998.01
2019-03-19T04:25:03.439Z,998.08
2019-03-19T04:26:03.401Z,998.10
2019-03-19T04:27:15.455Z,998.14
2019-03-19T04:28:03.181Z,998.18
2019-03-19T04:29:03.099Z,998.20
2019-03-19T04:30:03.011Z,998.22
2019-03-19T04:31:02.926Z,998.22
2019-03-19T04:32:02.840Z,998.22
2019-03-19T04:33:02.757Z,998.22
2019-03-19T04:34:02.669Z,998.26
2019-03-19T04:35:02.585Z,998.29
2019-03-19T04:36:02.508Z,998.31
2019-03-19T04:37:02.420Z,998.38
2019-03-19T04:38:02.333Z,998.40
2019-03-19T04:39:02.247Z,998.44
2019-03-19T04:40:02.170Z,998.42
2019-03-19T04:41:02.076Z,998.45
2019-03-19T04:42:01.993Z,998.47
2019-03-19T04:43:01.906Z,998.48
2019-03-19T04:44:01.817Z,998.45
2019-03-19T04:45:01.732Z,998.47
2019-03-19T04:46:01.646Z,998.49
2019-03-19T04:47:01.565Z,998.49
2019-03-19T04:48:03.518Z,998.50
2019-03-19T04:49:01.392Z,998.53
2019-03-19T04:50:01.310Z,998.47
2019-03-19T04:51:01.220Z,998.50
2019-03-19T04:52:01.146Z,998.49
2019-03-19T04:53:01.057Z,998.53
2019-03-19T04:54:00.966Z,998.58
2019-03-19T04:55:00.893Z,998.61
2019-03-19T04:56:00.794Z,998.61
2019-03-19T04:57:00.714Z,998.59
2019-03-19T04:58:00.625Z,998.58
2019-03-19T04:59:00.539Z,998.58
2019-03-19T05:00:00.453Z,998.57
2019-03-19T05:01:00.368Z,998.63
2019-03-19T05:02:00.282Z,998.67
2019-03-19T05:03:00.199Z,998.66
2019-03-19T05:04:00.111Z,998.70
2019-03-19T05:05:00.026Z,998.66
2019-03-19T05:05:59.941Z,998.59
2019-03-19T05:06:59.856Z,998.68
2019-03-19T05:07:59.770Z,998.69
2019-03-19T05:08:59.685Z,998.67
2019-03-19T05:09:59.600Z,998.68
2019-03-19T05:10:59.516Z,998.71
2019-03-19T05:11:59.433Z,998.73
2019-03-19T05:13:00.762Z,998.73
2019-03-19T05:13:59.260Z,998.77
2019-03-19T05:14:59.173Z,998.74
2019-03-19T05:15:59.087Z,998.75
2019-03-19T05:16:59.002Z,998.74
2019-03-19T05:17:58.919Z,998.67
2019-03-19T05:18:58.832Z,998.72
2019-03-19T05:19:58.745Z,998.68
2019-03-19T05:20:58.661Z,998.67
2019-03-19T05:21:58.575Z,998.70
2019-03-19T05:22:58.490Z,998.72
2019-03-19T05:23:58.404Z,998.78
2019-03-19T05:24:58.318Z,998.78
2019-03-19T05:25:58.234Z,998.82
2019-03-19T05:26:58.148Z,998.79
2019-03-19T05:27:58.063Z,998.82
2019-03-19T05:28:57.977Z,998.80
2019-03-19T05:29:57.892Z,998.74
2019-03-19T05:30:57.809Z,998.79
2019-03-19T05:31:57.720Z,998.76
2019-03-19T05:32:57.635Z,998.80
2019-03-19T05:33:57.560Z,998.82
2019-03-19T05:34:57.466Z,998.84
2019-03-19T05:35:57.381Z,998.82
2019-03-19T05:36:57.296Z,998.82
2019-03-19T05:37:57.209Z,998.85
2019-03-19T05:38:57.133Z,998.78
2019-03-19T05:39:57.039Z,998.80
2019-03-19T05:40:56.954Z,998.82
2019-03-19T05:41:56.867Z,998.83
2019-03-19T05:42:56.784Z,998.84
2019-03-19T05:43:56.696Z,998.82
2019-03-19T05:44:56.611Z,998.83
2019-03-19T05:45:56.527Z,998.84
2019-03-19T05:46:56.446Z,998.86
2019-03-19T05:47:56.354Z,998.89
2019-03-19T05:48:56.270Z,998.89
2019-03-19T05:49:56.192Z,998.97
2019-03-19T05:50:56.100Z,998.99
2019-03-19T05:51:56.013Z,999.03
2019-03-19T05:52:55.929Z,999.04
2019-03-19T05:53:55.842Z,999.04
2019-03-19T05:54:55.758Z,998.98
2019-03-19T05:55:55.672Z,999.03
2019-03-19T05:56:55.587Z,999.03
2019-03-19T05:57:55.501Z,999.02
2019-03-19T05:58:55.416Z,999.03
2019-03-19T05:59:55.330Z,999.06
2019-03-19T06:00:55.246Z,999.13
2019-03-19T06:01:55.162Z,999.15
2019-03-19T06:02:55.076Z,999.18
2019-03-19T06:03:54.991Z,999.20
2019-03-19T06:04:54.906Z,999.21
2019-03-19T06:05:54.822Z,999.17
2019-03-19T06:06:54.736Z,999.14
2019-03-19T06:07:54.651Z,999.16
2019-03-19T06:08:54.566Z,999.16
2019-03-19T06:09:54.482Z,999.21
2019-03-19T06:10:54.397Z,999.21
2019-03-19T06:11:54.310Z,999.23
2019-03-19T06:12:54.325Z,999.30
2019-03-19T06:13:54.140Z,999.29
2019-03-19T06:14:54.059Z,999.28
2019-03-19T06:15:53.969Z,999.28
2019-03-19T06:16:53.885Z,999.26
2019-03-19T06:17:53.799Z,999.28
2019-03-19T06:18:53.714Z,999.27
2019-03-19T06:19:53.631Z,999.29
2019-03-19T06:20:53.542Z,999.27
2019-03-19T06:21:53.463Z,999.35
2019-03-19T06:22:53.374Z,999.36
2019-03-19T06:23:53.290Z,999.33
2019-03-19T06:24:53.204Z,999.35
2019-03-19T06:25:53.133Z,999.32
2019-03-19T06:26:53.033Z,999.36
2019-03-19T06:28:00.201Z,999.30
2019-03-19T06:28:52.862Z,999.34
2019-03-19T06:29:52.779Z,999.27
2019-03-19T06:30:52.700Z,999.30
2019-03-19T06:31:52.606Z,999.30
2019-03-19T06:32:52.622Z,999.31
2019-03-19T06:33:52.437Z,999.34
2019-03-19T06:34:52.353Z,999.33
2019-03-19T06:35:52.271Z,999.37
2019-03-19T06:36:52.181Z,999.36
2019-03-19T06:37:52.097Z,999.39
2019-03-19T06:38:52.011Z,999.40
2019-03-19T06:39:51.926Z,999.36
2019-03-19T06:40:51.847Z,999.43
2019-03-19T06:41:51.758Z,999.33
2019-03-19T06:42:51.672Z,999.40
2019-03-19T06:43:51.585Z,999.39
2019-03-19T06:44:51.501Z,999.39
2019-03-19T06:45:51.416Z,999.43
2019-03-19T06:46:51.332Z,999.41
2019-03-19T06:47:51.245Z,999.43
2019-03-19T06:48:51.161Z,999.46
2019-03-19T06:49:51.077Z,999.46
2019-03-19T06:50:50.994Z,999.45
2019-03-19T06:51:50.907Z,999.53
2019-03-19T06:52:50.824Z,999.55
2019-03-19T06:53:50.739Z,999.61
2019-03-19T06:54:50.654Z,999.57
2019-03-19T06:55:50.570Z,999.62
2019-03-19T06:56:50.485Z,999.63
2019-03-19T06:57:50.405Z,999.64
2019-03-19T06:58:50.420Z,999.72
2019-03-19T06:59:50.231Z,999.74
2019-03-19T07:00:50.147Z,999.78
2019-03-19T07:01:50.062Z,999.78
2019-03-19T07:02:49.979Z,999.75
2019-03-19T07:03:49.893Z,999.74
2019-03-19T07:04:49.808Z,999.75
2019-03-19T07:05:49.724Z,999.72
2019-03-19T07:06:49.641Z,999.73
2019-03-19T07:07:49.556Z,999.73
2019-03-19T07:08:49.470Z,999.73
2019-03-19T07:09:49.387Z,999.76
2019-03-19T07:10:49.304Z,999.76
2019-03-19T07:11:49.219Z,999.76
2019-03-19T07:12:49.136Z,999.79
2019-03-19T07:13:49.076Z,999.79
2019-03-19T07:14:48.969Z,999.79
2019-03-19T07:15:48.884Z,999.75
2019-03-19T07:16:48.799Z,999.75
2019-03-19T07:17:48.716Z,999.75
2019-03-19T07:18:48.732Z,999.72
2019-03-19T07:19:48.548Z,999.71
2019-03-19T07:20:48.463Z,999.74
2019-03-19T07:21:48.382Z,999.74
2019-03-19T07:22:48.321Z,999.76
2019-03-19T07:23:48.213Z,999.77
2019-03-19T07:24:48.308Z,999.80
2019-03-19T07:25:48.046Z,999.81
2019-03-19T07:26:47.963Z,999.81
2019-03-19T07:27:47.879Z,999.83
2019-03-19T07:28:47.796Z,999.85
2019-03-19T07:29:47.712Z,999.84
2019-03-19T07:30:47.629Z,999.83
2019-03-19T07:31:47.545Z,999.86
2019-03-19T07:32:47.463Z,999.86
2019-03-19T07:33:47.380Z,999.86
2019-03-19T07:34:47.297Z,999.82
2019-03-19T07:35:47.212Z,999.86
2019-03-19T07:36:47.129Z,999.83
2019-03-19T07:37:47.047Z,999.88
2019-03-19T07:38:46.964Z,999.92
2019-03-19T07:39:46.879Z,999.91
2019-03-19T07:40:46.797Z,999.96
2019-03-19T07:41:46.715Z,999.97
2019-03-19T07:42:46.634Z,999.96
2019-03-19T07:43:46.550Z,999.95
2019-03-19T07:44:46.467Z,999.97
2019-03-19T07:45:46.383Z,999.94
2019-03-19T07:46:46.301Z,999.89
2019-03-19T07:47:46.227Z,999.91
2019-03-19T07:48:46.134Z,999.95
2019-03-19T07:49:46.052Z,999.91
2019-03-19T07:50:45.970Z,999.93
2019-03-19T07:51:45.885Z,999.92
2019-03-19T07:52:45.803Z,999.92
2019-03-19T07:53:45.720Z,999.92
2019-03-19T07:54:45.637Z,999.92
2019-03-19T07:55:45.555Z,999.96
2019-03-19T07:56:45.475Z,1000.00
2019-03-19T07:57:45.392Z,1000.01
2019-03-19T07:58:45.814Z,1000.05
2019-03-19T07:59:45.224Z,1000.06
2019-03-19T08:00:45.141Z,1000.03
2019-03-19T08:01:45.061Z,1000.09
2019-03-19T08:02:44.978Z,1000.10
2019-03-19T08:03:44.896Z,1000.12
2019-03-19T08:04:44.812Z,1000.10
2019-03-19T08:05:44.730Z,1000.06
2019-03-19T08:06:44.648Z,1000.09
2019-03-19T08:07:44.566Z,1000.10
2019-03-19T08:08:44.583Z,1000.08
2019-03-19T08:09:44.402Z,1000.12
2019-03-19T08:10:44.320Z,1000.13
2019-03-19T08:11:44.237Z,1000.18
2019-03-19T08:12:44.155Z,1000.20
2019-03-19T08:13:44.073Z,1000.21
2019-03-19T08:14:44.064Z,1000.22
2019-03-19T08:15:43.909Z,1000.22
2019-03-19T08:16:43.827Z,1000.25
2019-03-19T08:17:43.751Z,1000.25
2019-03-19T08:18:43.664Z,1000.28
2019-03-19T08:19:43.582Z,1000.28
2019-03-19T08:20:43.499Z,1000.31
2019-03-19T08:21:43.418Z,1000.30
2019-03-19T08:22:43.338Z,1000.33
2019-03-19T08:23:43.256Z,1000.32
2019-03-19T08:24:43.173Z,1000.34
2019-03-19T08:25:43.091Z,1000.35
2019-03-19T08:26:43.011Z,1000.32
2019-03-19T08:27:42.929Z,1000.32
2019-03-19T08:28:42.846Z,1000.32
2019-03-19T08:29:42.770Z,1000.36
2019-03-19T08:30:42.684Z,1000.36
2019-03-19T08:31:42.602Z,1000.41
2019-03-19T08:32:42.522Z,1000.38
2019-03-19T08:33:42.440Z,1000.41
2019-03-19T08:34:42.360Z,1000.44
2019-03-19T08:35:42.278Z,1000.47
2019-03-19T08:36:42.197Z,1000.47
2019-03-19T08:37:42.116Z,1000.46
2019-03-19T08:38:42.036Z,1000.50
2019-03-19T08:39:41.952Z,1000.47
2019-03-19T08:40:41.875Z,1000.46
2019-03-19T08:41:41.791Z,1000.47
2019-03-19T08:42:41.709Z,1000.48
2019-03-19T08:43:41.631Z,1000.47
2019-03-19T08:44:41.548Z,1000.51
2019-03-19T08:45:41.469Z,1000.50
2019-03-19T08:46:41.385Z,1000.55
2019-03-19T08:47:41.303Z,1000.52
2019-03-19T08:48:41.224Z,1000.55
2019-03-19T08:49:41.146Z,1000.60
2019-03-19T08:50:41.062Z,1000.60
2019-03-19T08:51:40.980Z,1000.59
2019-03-19T08:52:40.900Z,1000.58
2019-03-19T08:53:40.818Z,1000.57
2019-03-19T08:54:40.737Z,1000.60
2019-03-19T08:55:40.659Z,1000.60
2019-03-19T08:56:40.574Z,1000.64
2019-03-19T08:57:40.562Z,1000.65
2019-03-19T08:58:40.415Z,1000.66
2019-03-19T08:59:40.330Z,1000.70
2019-03-19T09:00:40.249Z,1000.74
2019-03-19T09:01:40.169Z,1000.73
2019-03-19T09:02:40.089Z,1000.77
2019-03-19T09:03:40.006Z,1000.81
2019-03-19T09:04:40.128Z,1000.76
2019-03-19T09:05:39.851Z,1000.80
2019-03-19T09:06:39.765Z,1000.82
2019-03-19T09:07:39.682Z,1000.77
2019-03-19T09:08:39.621Z,1000.79
2019-03-19T09:09:39.521Z,1000.82
2019-03-19T09:10:39.440Z,1000.79
2019-03-19T09:11:39.359Z,1000.78
2019-03-19T09:12:39.280Z,1000.77
2019-03-19T09:13:39.203Z,1000.80
2019-03-19T09:14:39.119Z,1000.76
2019-03-19T09:15:39.037Z,1000.75
2019-03-19T09:16:38.958Z,1000.77
2019-03-19T09:17:38.883Z,1000.76
2019-03-19T09:18:38.797Z,1000.80
2019-03-19T09:19:38.717Z,1000.81
2019-03-19T09:20:38.636Z,1000.83
2019-03-19T09:21:38.556Z,1000.85
2019-03-19T09:22:38.476Z,1000.91
2019-03-19T09:23:38.394Z,1000.88
2019-03-19T09:24:38.315Z,1000.89
2019-03-19T09:25:38.232Z,1000.89
2019-03-19T09:26:38.153Z,1000.89
2019-03-19T09:27:38.077Z,1000.86
2019-03-19T09:28:37.992Z,1000.89
2019-03-19T09:29:37.912Z,1000.91
2019-03-19T09:30:37.833Z,1000.89
2019-03-19T09:31:37.749Z,1000.90
2019-03-19T09:32:37.670Z,1000.95
2019-03-19T09:33:37.590Z,1000.94
2019-03-19T09:34:37.511Z,1000.96
2019-03-19T09:35:37.434Z,1000.97
2019-03-19T09:36:37.349Z,1000.97
2019-03-19T09:37:44.099Z,1001.00
2019-03-19T09:38:37.189Z,1000.98
2019-03-19T09:39:37.108Z,1000.99
2019-03-19T09:40:37.029Z,1000.98
2019-03-19T09:41:36.948Z,1000.96
2019-03-19T09:42:36.869Z,1000.93
2019-03-19T09:43:36.787Z,1000.98
2019-03-19T09:44:36.709Z,1000.96
2019-03-19T09:45:36.628Z,1001.01
2019-03-19T09:46:36.548Z,1000.99
2019-03-19T09:47:38.500Z,1001.05
2019-03-19T09:48:36.393Z,1001.07
2019-03-19T09:49:36.307Z,1001.04
2019-03-19T09:50:36.230Z,1001.03
2019-03-19T09:51:36.149Z,1001.04
2019-03-19T09:52:36.068Z,1001.09
2019-03-19T09:53:35.986Z,1001.05
2019-03-19T09:54:35.907Z,1001.09
2019-03-19T09:55:35.825Z,1001.07
2019-03-19T09:56:35.745Z,1001.06
2019-03-19T09:57:35.664Z,1001.06
2019-03-19T09:58:35.584Z,1001.09
2019-03-19T09:59:35.510Z,1001.05
2019-03-19T10:00:35.422Z,1001.06
2019-03-19T10:01:35.343Z,1001.03
2019-03-19T10:02:35.262Z,1001.08
2019-03-19T10:03:35.184Z,1001.10
2019-03-19T10:04:35.104Z,1001.07
2019-03-19T10:05:35.021Z,1001.12
2019-03-19T10:06:34.942Z,1001.15
2019-03-19T10:07:34.863Z,1001.14
2019-03-19T10:08:34.785Z,1001.10
2019-03-19T10:09:34.704Z,1001.11
2019-03-19T10:10:34.697Z,1001.10
2019-03-19T10:11:34.543Z,1001.06
2019-03-19T10:12:34.464Z,1001.01
2019-03-19T10:13:34.384Z,1001.04
2019-03-19T10:14:34.305Z,1001.03
2019-03-19T10:15:34.226Z,1001.06
2019-03-19T10:16:34.147Z,1001.02
2019-03-19T10:17:34.068Z,1001.01
2019-03-19T10:18:33.988Z,1001.07
2019-03-19T10:19:33.906Z,1001.10
2019-03-19T10:20:33.828Z,1001.07
2019-03-19T10:21:33.754Z,1001.12
2019-03-19T10:22:33.670Z,1001.09
2019-03-19T10:23:33.591Z,1001.12
2019-03-19T10:24:33.516Z,1001.10
2019-03-19T10:25:33.438Z,1001.09
2019-03-19T10:26:33.357Z,1001.08
2019-03-19T10:27:33.279Z,1001.07
2019-03-19T10:28:33.203Z,1001.05
2019-03-19T10:29:38.230Z,1001.03
2019-03-19T10:30:33.046Z,1000.99
2019-03-19T10:31:32.965Z,1000.97
2019-03-19T10:32:32.887Z,1001.00
2019-03-19T10:33:32.811Z,1001.03
2019-03-19T10:34:32.732Z,1001.07
2019-03-19T10:35:32.654Z,1001.10
2019-03-19T10:36:32.575Z,1001.14
2019-03-19T10:37:32.497Z,1001.10
2019-03-19T10:38:32.421Z,1001.11
2019-03-19T10:39:32.344Z,1001.11
2019-03-19T10:40:32.265Z,1001.08
2019-03-19T10:41:32.188Z,1001.03
2019-03-19T10:42:32.112Z,1001.07
2019-03-19T10:43:32.036Z,1001.04
2019-03-19T10:44:31.958Z,1001.06
2019-03-19T10:45:31.882Z,1001.07
2019-03-19T10:46:31.812Z,1001.09
2019-03-19T10:47:31.727Z,1001.04
2019-03-19T10:48:31.651Z,1001.03
2019-03-19T10:49:31.574Z,1001.09
2019-03-19T10:50:31.499Z,1001.18
2019-03-19T10:51:31.427Z,1001.24
2019-03-19T10:52:31.346Z,1001.32
2019-03-19T10:53:31.270Z,1001.28
2019-03-19T10:54:31.197Z,1001.25
2019-03-19T10:55:31.119Z,1001.25
2019-03-19T10:56:31.043Z,1001.30
2019-03-19T10:57:30.968Z,1001.31
2019-03-19T10:58:30.893Z,1001.32
2019-03-19T10:59:30.817Z,1001.30
2019-03-19T11:00:30.743Z,1001.37
2019-03-19T11:01:30.671Z,1001.45
2019-03-19T11:02:30.595Z,1001.40
2019-03-19T11:03:30.520Z,1001.34
2019-03-19T11:04:30.445Z,1001.35
2019-03-19T11:05:30.372Z,1001.36
2019-03-19T11:06:30.301Z,1001.32
2019-03-19T11:07:30.228Z,1001.34
2019-03-19T11:08:30.153Z,1001.35
2019-03-19T11:09:30.079Z,1001.42
2019-03-19T11:10:30.009Z,1001.54
2019-03-19T11:11:29.935Z,1001.45
2019-03-19T11:12:29.860Z,1001.52
2019-03-19T11:13:29.787Z,1001.56
2019-03-19T11:14:29.714Z,1001.56
2019-03-19T11:15:31.650Z,1001.62
2019-03-19T11:16:29.568Z,1001.63
2019-03-19T11:17:29.495Z,1001.51
2019-03-19T11:18:29.422Z,1001.54
2019-03-19T11:19:29.350Z,1001.50
2019-03-19T11:20:29.279Z,1001.63
2019-03-19T11:21:29.210Z,1001.65
2019-03-19T11:22:29.142Z,1001.60
2019-03-19T11:23:29.061Z,1001.69
2019-03-19T11:24:28.988Z,1001.72
2019-03-19T11:25:28.918Z,1001.76
2019-03-19T11:26:28.848Z,1001.75
2019-03-19T11:27:28.773Z,1001.73
2019-03-19T11:28:28.703Z,1001.74
2019-03-19T11:29:28.784Z,1001.74
2019-03-19T11:30:28.563Z,1001.73
2019-03-19T11:31:28.491Z,1001.79
2019-03-19T11:32:28.421Z,1001.88
2019-03-19T11:33:28.351Z,1001.95
2019-03-19T11:34:28.283Z,1001.99
2019-03-19T11:35:28.266Z,1001.91
2019-03-19T11:36:28.148Z,1001.86
2019-03-19T11:37:28.072Z,1001.92
2019-03-19T11:38:28.005Z,1001.91
2019-03-19T11:39:27.936Z,1001.91
2019-03-19T11:40:27.867Z,1001.95
2019-03-19T11:41:27.797Z,1001.88
2019-03-19T11:42:27.729Z,1001.94
2019-03-19T11:43:27.660Z,1001.86
2019-03-19T11:44:27.592Z,1001.84
2019-03-19T11:45:27.524Z,1001.85
2019-03-19T11:46:27.456Z,1001.81
2019-03-19T11:47:27.389Z,1001.82
2019-03-19T11:48:27.320Z,1001.76
2019-03-19T11:49:27.252Z,1001.71
2019-03-19T11:50:27.186Z,1001.75
2019-03-19T11:51:27.117Z,1001.72
2019-03-19T11:52:27.050Z,1001.75
2019-03-19T11:53:26.983Z,1001.81
2019-03-19T11:54:26.917Z,1001.78
2019-03-19T11:55:26.849Z,1001.79
2019-03-19T11:56:26.783Z,1001.75
2019-03-19T11:57:26.720Z,1001.78
2019-03-19T11:58:26.651Z,1001.80
2019-03-19T11:59:26.584Z,1001.79
2019-03-19T12:00:26.522Z,1001.79
2019-03-19T12:01:26.452Z,1001.79
2019-03-19T12:02:26.513Z,1001.79
2019-03-19T12:03:26.319Z,1001.77
2019-03-19T12:04:26.259Z,1001.75
2019-03-19T12:05:26.190Z,1001.77
2019-03-19T12:06:26.122Z,1001.77
2019-03-19T12:07:26.058Z,1001.75
2019-03-19T12:08:25.992Z,1001.85
2019-03-19T12:09:25.927Z,1001.81
2019-03-19T12:10:25.873Z,1001.85
2019-03-19T12:11:25.796Z,1001.88
2019-03-19T12:12:25.731Z,1001.84
2019-03-19T12:13:25.666Z,1001.87
2019-03-19T12:14:25.602Z,1001.88
2019-03-19T12:15:25.535Z,1001.91
2019-03-19T12:16:25.474Z,1001.91
2019-03-19T12:17:25.407Z,1001.93
2019-03-19T12:18:25.341Z,1001.89
2019-03-19T12:19:25.275Z,1001.88